Time;durP1;ratioP1;P1;durP2;ratioP2;P2;SDS_P1;SDS_P2;PMS_P1;PMS_P2;Temp;Humidity;BMP_temperature;BMP_pressure;BME280_temperature;BME280_humidity;BME280_pressure;Samples;Min_cycle;Max_cycle;Signal;HPM_P1;HPM_P2
2020/12/29 00:00:22;;;;;;;2.10;1.13;;;;;;;;;;5067398;28;20105;-57
2020/12/29 00:03:07;;;;;;;1.97;1.17;;;;;;;;;;5066452;28;20028;-58
2020/12/29 00:05:50;;;;;;;2.63;1.33;;;;;;;;;;5067196;28;20037;-59
2020/12/29 00:08:41;;;;;;;3.07;1.13;;;;;;;;;;5067403;28;20025;-58
2020/12/29 00:11:34;;;;;;;1.20;0.60;;;;;;;;;;5067052;28;20029;-54
2020/12/29 00:14:12;;;;;;;1.43;0.80;;;;;;;;;;5004413;28;20603;-58
2020/12/29 00:16:51;;;;;;;2.57;1.40;;;;;;;;;;5005657;28;20027;-58
2020/12/29 00:20:02;;;;;;;1.50;0.70;;;;;;;;;;5055917;28;20041;-58
2020/12/29 00:25:37;;;;;;;1.43;0.60;;;;;;;;;;5067225;28;20255;-57
2020/12/29 00:28:21;;;;;;;1.93;0.87;;;;;;;;;;5066901;28;20028;-58
2020/12/29 00:31:06;;;;;;;2.00;0.63;;;;;;;;;;5067358;28;20025;-55
2020/12/29 00:37:01;;;;;;;0.90;0.40;;;;;;;;;;5011778;28;20034;-57
2020/12/29 00:39:34;;;;;;;1.00;0.40;;;;;;;;;;5067071;28;20088;-58
2020/12/29 00:42:19;;;;;;;1.30;0.50;;;;;;;;;;5063416;28;20033;-58
2020/12/29 00:45:02;;;;;;;1.13;0.50;;;;;;;;;;5060492;28;20030;-58
2020/12/29 00:47:49;;;;;;;0.43;0.27;;;;;;;;;;5066443;28;20028;-58
2020/12/29 00:50:39;;;;;;;1.27;0.43;;;;;;;;;;5066427;28;20021;-58
2020/12/29 00:53:35;;;;;;;0.65;0.20;;;;;;;;;;5063884;28;20549;-57
2020/12/29 00:58:59;;;;;;;0.50;0.30;;;;;;;;;;5066252;28;20051;-59
2020/12/29 01:01:28;;;;;;;0.50;0.30;;;;;;;;;;5066214;28;20044;-57
2020/12/29 01:03:55;;;;;;;1.10;0.47;;;;;;;;;;5065255;28;20025;-56
2020/12/29 01:06:37;;;;;;;0.70;0.30;;;;;;;;;;5066220;28;20025;-58
2020/12/29 01:09:25;;;;;;;1.27;0.60;;;;;;;;;;5066318;28;20079;-57
2020/12/29 01:12:19;;;;;;;0.50;0.20;;;;;;;;;;5064877;28;20025;-57
2020/12/29 01:15:18;;;;;;;0.83;0.23;;;;;;;;;;5066004;28;20036;-59
2020/12/29 01:20:42;;;;;;;0.10;0.10;;;;;;;;;;5023222;28;20026;-58
2020/12/29 01:23:21;;;;;;;0.50;0.20;;;;;;;;;;5022882;28;20157;-59
2020/12/29 01:29:27;;;;;;;1.07;0.37;;;;;;;;;;5023814;28;20033;-58
2020/12/29 01:35:10;;;;;;;0.37;0.20;;;;;;;;;;5043384;28;20113;-58
2020/12/29 01:38:07;;;;;;;0.70;0.23;;;;;;;;;;5066216;28;20029;-57
2020/12/29 01:41:09;;;;;;;0.67;0.30;;;;;;;;;;5066090;28;20101;-58
2020/12/29 01:43:47;;;;;;;2.43;0.40;;;;;;;;;;5060624;28;20092;-58
2020/12/29 01:46:20;;;;;;;0.50;0.30;;;;;;;;;;5066234;28;20095;-56
2020/12/29 01:49:22;;;;;;;0.10;0.10;;;;;;;;;;5066074;28;20159;-57
2020/12/29 01:52:36;;;;;;;1.03;0.43;;;;;;;;;;5065365;28;20032;-57
2020/12/29 01:55:32;;;;;;;0.47;0.30;;;;;;;;;;5065448;28;20599;-57
2020/12/29 01:58:20;;;;;;;0.53;0.37;;;;;;;;;;5060836;28;20526;-56
2020/12/29 02:01:14;;;;;;;0.30;0.20;;;;;;;;;;5065597;28;20037;-56
2020/12/29 02:04:13;;;;;;;0.67;0.43;;;;;;;;;;5064971;28;20684;-56
2020/12/29 02:09:53;;;;;;;1.40;0.60;;;;;;;;;;5067277;28;20112;-58
2020/12/29 02:12:31;;;;;;;0.77;0.40;;;;;;;;;;5068997;28;20052;-58
2020/12/29 02:18:47;;;;;;;1.60;0.32;;;;;;;;;;5035415;28;20029;-57
2020/12/29 02:24:08;;;;;;;;;;;;;;;;;;5007383;28;20471;-58
2020/12/29 02:29:53;;;;;;;0.50;0.20;;;;;;;;;;5068835;28;20033;-56
2020/12/29 02:33:01;;;;;;;0.30;0.20;;;;;;;;;;5068020;28;20089;-58
2020/12/29 02:35:57;;;;;;;1.13;0.20;;;;;;;;;;5069013;28;20037;-58
2020/12/29 02:38:46;;;;;;;0.27;0.20;;;;;;;;;;5043549;28;20052;-58
2020/12/29 02:41:31;;;;;;;0.30;0.20;;;;;;;;;;5007147;28;20040;-57
2020/12/29 02:44:31;;;;;;;4.57;0.50;;;;;;;;;;5066913;28;20037;-58
2020/12/29 02:47:19;;;;;;;;;;;;;;;;;;;;;
2020/12/29 02:53:02;;;;;;;0.17;0.10;;;;;;;;;;5068068;28;20039;-59
2020/12/29 02:55:55;;;;;;;0.00;0.00;;;;;;;;;;5068577;28;20037;-58
2020/12/29 02:58:28;;;;;;;0.60;0.40;;;;;;;;;;5068438;28;20039;-57
2020/12/29 03:01:36;;;;;;;0.10;0.10;;;;;;;;;;5067024;28;20044;-59
2020/12/29 03:07:19;;;;;;;0.47;0.20;;;;;;;;;;5068522;28;20040;-58
2020/12/29 03:09:58;;;;;;;0.10;0.10;;;;;;;;;;5068336;28;20025;-58
2020/12/29 03:12:40;;;;;;;0.10;0.10;;;;;;;;;;5067184;28;20044;-57
2020/12/29 03:15:13;;;;;;;1.70;0.43;;;;;;;;;;5068089;28;20090;-57
2020/12/29 03:17:55;;;;;;;0.20;0.20;;;;;;;;;;5068295;28;20032;-58
2020/12/29 03:20:34;;;;;;;0.40;0.30;;;;;;;;;;5068538;28;20088;-58
2020/12/29 03:23:24;;;;;;;0.00;0.00;;;;;;;;;;5066670;28;20025;-59
2020/12/29 03:26:04;;;;;;;0.10;0.10;;;;;;;;;;5068400;28;20071;-58
2020/12/29 03:29:17;;;;;;;;;;;;;;;;;;;;;
2020/12/29 03:32:10;;;;;;;0.20;0.20;;;;;;;;;;5056882;28;20067;-58
2020/12/29 03:35:00;;;;;;;0.23;0.20;;;;;;;;;;5067174;28;20061;-56
2020/12/29 03:40:45;;;;;;;0.00;0.00;;;;;;;;;;5030434;28;20030;-57
2020/12/29 03:43:42;;;;;;;0.10;0.10;;;;;;;;;;5066544;28;20025;-58
2020/12/29 03:49:21;;;;;;;0.13;0.13;;;;;;;;;;5066364;28;20124;-59
2020/12/29 03:52:00;;;;;;;1.67;0.60;;;;;;;;;;5084841;28;20052;-57
2020/12/29 03:54:29;;;;;;;1.33;0.43;;;;;;;;;;5067389;28;20041;-59
2020/12/29 03:57:23;;;;;;;1.20;0.43;;;;;;;;;;5067828;28;20037;-58
2020/12/29 04:03:26;;;;;;;0.67;0.60;;;;;;;;;;5059189;28;20037;-55
2020/12/29 04:06:01;;;;;;;0.83;0.20;;;;;;;;;;5067010;28;20593;-56
2020/12/29 04:09:02;;;;;;;0.10;0.10;;;;;;;;;;5067456;28;20029;-57
2020/12/29 04:12:18;;;;;;;0.70;0.38;;;;;;;;;;5067093;28;20028;-57
2020/12/29 04:14:54;;;;;;;0.10;0.10;;;;;;;;;;5062460;28;20036;-58
2020/12/29 04:17:52;;;;;;;0.40;0.33;;;;;;;;;;5065112;28;20044;-57
2020/12/29 04:20:31;;;;;;;0.10;0.10;;;;;;;;;;5066928;28;20086;-58
2020/12/29 04:23:13;;;;;;;1.17;0.20;;;;;;;;;;5064660;28;20132;-56
2020/12/29 04:25:58;;;;;;;1.10;0.40;;;;;;;;;;5066679;28;20082;-57
2020/12/29 04:31:56;;;;;;;0.63;0.30;;;;;;;;;;4996428;28;20082;-57
2020/12/29 04:34:48;;;;;;;;;;;;;;;;;;;;;
2020/12/29 04:37:23;;;;;;;0.20;0.10;;;;;;;;;;5049354;28;20351;-58
2020/12/29 04:43:21;;;;;;;0.33;0.23;;;;;;;;;;5023962;28;20047;-55
2020/12/29 04:46:09;;;;;;;0.20;0.20;;;;;;;;;;5053683;28;20079;-58
2020/12/29 04:52:18;;;;;;;0.43;0.30;;;;;;;;;;5032220;28;20033;-58
2020/12/29 04:55:13;;;;;;;0.23;0.20;;;;;;;;;;5053223;28;20122;-56
2020/12/29 04:58:10;;;;;;;0.20;0.10;;;;;;;;;;5053537;28;20039;-56
2020/12/29 05:01:04;;;;;;;0.33;0.10;;;;;;;;;;5052137;28;20086;-57
2020/12/29 05:03:43;;;;;;;0.40;0.23;;;;;;;;;;5051238;28;20056;-55
2020/12/29 05:06:37;;;;;;;0.40;0.20;;;;;;;;;;5052812;28;20029;-57
2020/12/29 05:09:12;;;;;;;2.73;0.50;;;;;;;;;;5051911;28;20541;-56
2020/12/29 05:12:13;;;;;;;0.80;0.30;;;;;;;;;;5052981;28;20053;-58
2020/12/29 05:14:56;;;;;;;0.10;0.10;;;;;;;;;;5053099;28;20045;-55
2020/12/29 05:21:06;;;;;;;0.13;0.13;;;;;;;;;;5052611;28;20494;-57
2020/12/29 05:24:07;;;;;;;0.53;0.40;;;;;;;;;;5051943;28;20031;-57
2020/12/29 05:32:44;;;;;;;0.70;0.50;;;;;;;;;;5060339;28;20041;-55
2020/12/29 05:38:44;;;;;;;0.77;0.50;;;;;;;;;;5072827;28;20459;-55
2020/12/29 05:44:52;;;;;;;0.57;0.37;;;;;;;;;;5058959;28;20044;-56
2020/12/29 05:47:33;;;;;;;0.43;0.20;;;;;;;;;;5055751;28;20047;-54
2020/12/29 05:55:58;;;;;;;0.30;0.20;;;;;;;;;;5057886;28;19916;-56
2020/12/29 05:59:05;;;;;;;0.40;0.30;;;;;;;;;;5075928;28;20063;-57
2020/12/29 06:02:08;;;;;;;1.03;0.30;;;;;;;;;;5013947;28;20037;-56
2020/12/29 06:04:44;;;;;;;0.50;0.27;;;;;;;;;;5075799;28;20115;-57
2020/12/29 06:07:34;;;;;;;0.30;0.20;;;;;;;;;;5076908;28;20021;-56
2020/12/29 06:10:40;;;;;;;1.00;0.40;;;;;;;;;;5060450;28;20037;-56
2020/12/29 06:13:14;;;;;;;0.83;0.33;;;;;;;;;;5066759;28;20546;-56
2020/12/29 06:16:02;;;;;;;0.10;0.10;;;;;;;;;;5035558;28;20056;-57
2020/12/29 06:18:57;;;;;;;0.37;0.20;;;;;;;;;;5036168;28;20231;-55
2020/12/29 06:21:47;;;;;;;0.70;0.30;;;;;;;;;;5036216;28;20025;-56
2020/12/29 06:24:16;;;;;;;;;;;;;;;;;;5051938;28;20358;-55
2020/12/29 06:27:24;;;;;;;0.30;0.20;;;;;;;;;;5054568;28;20341;-56
2020/12/29 06:33:00;;;;;;;0.43;0.20;;;;;;;;;;5031159;28;20064;-56
2020/12/29 06:35:42;;;;;;;0.50;0.30;;;;;;;;;;5056297;28;20035;-55
2020/12/29 06:38:57;;;;;;;0.57;0.40;;;;;;;;;;5063267;28;20047;-56
2020/12/29 06:41:30;;;;;;;1.20;0.30;;;;;;;;;;5061781;28;20470;-55
2020/12/29 06:44:43;;;;;;;0.33;0.20;;;;;;;;;;5074957;28;20055;-54
2020/12/29 06:50:37;;;;;;;0.63;0.57;;;;;;;;;;5040802;28;20115;-57
2020/12/29 06:53:32;;;;;;;0.60;0.40;;;;;;;;;;5055450;28;20112;-56
2020/12/29 06:59:25;;;;;;;3.13;0.63;;;;;;;;;;5022216;28;20119;-56
2020/12/29 07:02:23;;;;;;;0.87;0.43;;;;;;;;;;5035295;28;20517;-56
2020/12/29 07:05:20;;;;;;;1.90;0.30;;;;;;;;;;5037846;28;20136;-56
2020/12/29 07:08:05;;;;;;;1.23;0.70;;;;;;;;;;4954092;28;20055;-57
2020/12/29 07:10:40;;;;;;;0.00;0.00;;;;;;;;;;5037885;28;20045;-57
2020/12/29 07:16:31;;;;;;;1.80;0.63;;;;;;;;;;5012572;28;20121;-54
2020/12/29 07:19:30;;;;;;;0.32;0.20;;;;;;;;;;5065928;28;20039;-57
2020/12/29 07:22:18;;;;;;;3.60;1.00;;;;;;;;;;5066682;28;20060;-56
2020/12/29 07:27:45;;;;;;;;;;;;;;;;;;5054557;28;20550;-55
2020/12/29 07:30:24;;;;;;;0.40;0.23;;;;;;;;;;5055105;28;19935;-55
2020/12/29 07:33:05;;;;;;;4.27;0.70;;;;;;;;;;5053677;28;20021;-54
2020/12/29 07:36:26;;;;;;;;;;;;;;;;;;;;;
2020/12/29 07:39:08;;;;;;;0.68;0.60;;;;;;;;;;5074501;28;20020;-57
2020/12/29 07:41:59;;;;;;;;;;;;;;;;;;;;;
2020/12/29 07:47:47;;;;;;;1.07;0.50;;;;;;;;;;5074666;28;20531;-57
2020/12/29 07:50:36;;;;;;;;;;;;;;;;;;;;;
2020/12/29 07:53:20;;;;;;;1.47;0.50;;;;;;;;;;5033680;28;20120;-56
2020/12/29 07:59:22;;;;;;;;;;;;;;;;;;;;;
2020/12/29 08:01:55;;;;;;;3.17;0.57;;;;;;;;;;5032779;28;20039;-57
2020/12/29 08:07:43;;;;;;;1.07;0.50;;;;;;;;;;5042067;28;20508;-55
2020/12/29 08:10:18;;;;;;;1.87;0.73;;;;;;;;;;5074620;28;20032;-56
2020/12/29 08:13:23;;;;;;;0.37;0.27;;;;;;;;;;5048354;28;20387;-57
2020/12/29 08:15:54;;;;;;;2.10;0.70;;;;;;;;;;5033024;28;20044;-57
2020/12/29 08:18:41;;;;;;;;;;;;;;;;;;5049696;28;20028;-56
2020/12/29 08:21:15;;;;;;;1.20;0.60;;;;;;;;;;5072867;28;19904;-56
2020/12/29 08:23:44;;;;;;;0.83;0.50;;;;;;;;;;5073697;28;20093;-55
2020/12/29 08:26:11;;;;;;;4.23;0.90;;;;;;;;;;5073716;28;20028;-56
2020/12/29 08:28:41;;;;;;;3.83;0.37;;;;;;;;;;5073420;28;20040;-56
2020/12/29 08:31:36;;;;;;;;;;;;;;;;;;;;;
2020/12/29 08:37:44;;;;;;;0.73;0.60;;;;;;;;;;5052559;28;20045;-57
2020/12/29 08:40:25;;;;;;;2.40;1.10;;;;;;;;;;5033530;28;20029;-56
2020/12/29 08:42:52;;;;;;;0.90;0.53;;;;;;;;;;5032731;28;20120;-55
2020/12/29 08:45:53;;;;;;;;;;;;;;;;;;;;;
2020/12/29 08:51:43;;;;;;;0.97;0.50;;;;;;;;;;5042333;28;20137;-57
2020/12/29 08:55:01;;;;;;;;;;;;;;;;;;;;;
2020/12/29 08:57:45;;;;;;;0.27;0.20;;;;;;;;;;5049843;28;20096;-57
2020/12/29 09:00:36;;;;;;;2.40;0.87;;;;;;;;;;5043289;28;20127;-56
2020/12/29 09:03:26;;;;;;;2.27;0.83;;;;;;;;;;5028441;28;20025;-57
2020/12/29 09:09:37;;;;;;;0.47;0.27;;;;;;;;;;5012747;28;20048;-58
2020/12/29 09:12:34;;;;;;;1.60;1.47;;;;;;;;;;5031600;28;20116;-58
2020/12/29 09:15:28;;;;;;;0.67;0.30;;;;;;;;;;5032575;28;20464;-58
2020/12/29 09:18:10;;;;;;;2.70;0.50;;;;;;;;;;5033872;28;20046;-56
2020/12/29 09:20:59;;;;;;;1.57;0.83;;;;;;;;;;5020958;28;20364;-57
2020/12/29 09:24:03;;;;;;;;;;;;;;;;;;;;;
2020/12/29 09:26:54;;;;;;;2.63;0.40;;;;;;;;;;5036008;28;20029;-57
2020/12/29 09:32:50;;;;;;;0.60;0.40;;;;;;;;;;5029095;28;20029;-57
2020/12/29 09:35:42;;;;;;;1.07;0.30;;;;;;;;;;4994605;28;20121;-57
2020/12/29 09:38:33;;;;;;;0.60;0.43;;;;;;;;;;5015194;28;20038;-57
2020/12/29 09:44:16;;;;;;;1.90;0.40;;;;;;;;;;5034807;28;20427;-57
2020/12/29 09:53:29;;;;;;;1.40;0.57;;;;;;;;;;5032664;28;20455;-57
2020/12/29 09:56:22;;;;;;;3.50;1.07;;;;;;;;;;5050851;28;20064;-57
2020/12/29 09:58:57;;;;;;;1.53;0.30;;;;;;;;;;5041562;28;20499;-57
2020/12/29 10:02:17;;;;;;;2.63;0.80;;;;;;;;;;5040835;28;20894;-55
2020/12/29 10:04:58;;;;;;;6.37;1.13;;;;;;;;;;4941791;28;20577;-56
2020/12/29 10:07:59;;;;;;;0.77;0.53;;;;;;;;;;5043382;28;20479;-56
2020/12/29 10:14:05;;;;;;;;;;;;;;;;;;;;;
2020/12/29 10:19:50;;;;;;;1.53;0.60;;;;;;;;;;5033305;28;20056;-56
2020/12/29 10:22:51;;;;;;;1.03;0.50;;;;;;;;;;5031366;28;20041;-56
2020/12/29 10:26:05;;;;;;;1.48;0.65;;;;;;;;;;5017993;28;20490;-58
2020/12/29 10:31:49;;;;;;;0.43;0.30;;;;;;;;;;4902823;29;20123;-57
2020/12/29 10:34:38;;;;;;;3.30;1.20;;;;;;;;;;4915035;28;20039;-58
2020/12/29 10:37:30;;;;;;;2.47;0.43;;;;;;;;;;4956841;28;20039;-58
2020/12/29 10:40:29;;;;;;;0.93;0.47;;;;;;;;;;4973134;28;20031;-58
2020/12/29 10:43:10;;;;;;;4.67;0.70;;;;;;;;;;4962316;28;20031;-59
2020/12/29 10:45:51;;;;;;;1.00;0.50;;;;;;;;;;4993031;28;20061;-57
2020/12/29 10:48:36;;;;;;;0.30;0.17;;;;;;;;;;5056251;28;20383;-58
2020/12/29 10:51:02;;;;;;;0.40;0.30;;;;;;;;;;5055802;28;20033;-59
2020/12/29 10:57:01;;;;;;;0.30;0.13;;;;;;;;;;5035418;28;20553;-59
2020/12/29 10:59:28;;;;;;;0.77;0.27;;;;;;;;;;5023274;28;20471;-59
2020/12/29 11:02:24;;;;;;;0.20;0.20;;;;;;;;;;5034884;28;20018;-57
2020/12/29 11:08:03;;;;;;;4.95;0.50;;;;;;;;;;5055615;28;20545;-60
2020/12/29 11:10:35;;;;;;;0.10;0.10;;;;;;;;;;4990912;28;20069;-58
2020/12/29 11:13:24;;;;;;;0.47;0.23;;;;;;;;;;5049098;28;20029;-57
2020/12/29 11:19:17;;;;;;;0.30;0.17;;;;;;;;;;5047084;28;20036;-57
2020/12/29 11:22:31;;;;;;;;;;;;;;;;;;;;;
2020/12/29 11:25:34;;;;;;;;;;;;;;;;;;;;;
2020/12/29 11:28:51;;;;;;;0.37;0.20;;;;;;;;;;5047682;28;20043;-59
2020/12/29 11:31:39;;;;;;;0.30;0.20;;;;;;;;;;4993256;28;20022;-59
2020/12/29 11:37:25;;;;;;;0.40;0.37;;;;;;;;;;5013017;28;20077;-57
2020/12/29 11:55:09;;;;;;;0.52;0.30;;;;;;;;;;5034702;28;20036;-59
2020/12/29 12:01:19;;;;;;;;;;;;;;;;;;;;;
2020/12/29 12:04:17;;;;;;;;;;;;;;;;;;;;;
2020/12/29 12:07:26;;;;;;;0.57;0.30;;;;;;;;;;5054194;28;20092;-59
2020/12/29 12:10:27;;;;;;;0.63;0.30;;;;;;;;;;5023344;28;20140;-58
2020/12/29 12:22:03;;;;;;;0.47;0.25;;;;;;;;;;5045963;28;20128;-58
2020/12/29 12:28:07;;;;;;;0.53;0.30;;;;;;;;;;4970534;28;20368;-59
2020/12/29 12:30:51;;;;;;;0.53;0.23;;;;;;;;;;4973161;28;20026;-58
2020/12/29 12:39:55;;;;;;;0.80;0.30;;;;;;;;;;4980812;28;20026;-56
2020/12/29 12:42:39;;;;;;;;;;;;;;;;;;4933917;29;20036;-59
2020/12/29 12:45:28;;;;;;;0.10;0.10;;;;;;;;;;4962138;28;19906;-58
2020/12/29 12:48:11;;;;;;;0.97;0.53;;;;;;;;;;5011621;28;20504;-58
2020/12/29 12:50:57;;;;;;;;;;;;;;;;;;;;;
2020/12/29 12:53:29;;;;;;;0.80;0.37;;;;;;;;;;5012742;28;20034;-59
2020/12/29 12:56:28;;;;;;;2.63;0.53;;;;;;;;;;5013788;28;20545;-59
2020/12/29 12:59:09;;;;;;;0.63;0.40;;;;;;;;;;5021245;28;20511;-59
2020/12/29 13:04:58;;;;;;;1.30;0.70;;;;;;;;;;5053718;28;20118;-59
2020/12/29 13:07:45;;;;;;;1.13;1.03;;;;;;;;;;5053811;28;20479;-59
2020/12/29 13:10:35;;;;;;;0.70;0.57;;;;;;;;;;5035517;28;20372;-59
2020/12/29 13:13:12;;;;;;;0.80;0.50;;;;;;;;;;5010754;28;20395;-59
2020/12/29 13:15:51;;;;;;;1.97;0.53;;;;;;;;;;5013534;28;20042;-58
2020/12/29 13:21:49;;;;;;;2.17;0.80;;;;;;;;;;4990661;28;20093;-59
2020/12/29 13:24:47;;;;;;;0.97;0.50;;;;;;;;;;5050177;28;20051;-60
2020/12/29 13:27:13;;;;;;;0.47;0.27;;;;;;;;;;5046904;28;20026;-60
2020/12/29 13:42:23;;;;;;;3.80;0.80;;;;;;;;;;4931987;29;20039;-56
2020/12/29 13:45:08;;;;;;;2.53;1.03;;;;;;;;;;4990791;28;20045;-57
2020/12/29 13:48:21;;;;;;;1.63;0.93;;;;;;;;;;4970033;28;20070;-55
2020/12/29 13:51:02;;;;;;;0.93;0.50;;;;;;;;;;4993958;28;20133;-59
2020/12/29 13:53:50;;;;;;;2.63;1.00;;;;;;;;;;5016532;28;20042;-58
2020/12/29 13:56:37;;;;;;;1.73;0.90;;;;;;;;;;5052606;28;20504;-58
2020/12/29 14:02:22;;;;;;;1.57;0.63;;;;;;;;;;4989854;28;20034;-59
2020/12/29 14:05:15;;;;;;;2.10;1.30;;;;;;;;;;5024054;28;20578;-59
2020/12/29 14:08:10;;;;;;;2.03;1.10;;;;;;;;;;5036919;28;20379;-58
2020/12/29 14:11:12;;;;;;;1.37;0.77;;;;;;;;;;5034830;28;20026;-56
2020/12/29 14:14:22;;;;;;;;;;;;;;;;;;;;;
2020/12/29 14:17:01;;;;;;;;;;;;;;;;;;;;;
2020/12/29 14:19:36;;;;;;;0.90;0.63;;;;;;;;;;5035880;28;20085;-57
2020/12/29 14:22:26;;;;;;;3.07;1.47;;;;;;;;;;5035675;28;20352;-58
2020/12/29 14:25:16;;;;;;;1.90;1.20;;;;;;;;;;5050691;28;20110;-59
2020/12/29 14:27:53;;;;;;;;;;;;;;;;;;5037729;28;20037;-58
2020/12/29 14:33:41;;;;;;;2.20;1.00;;;;;;;;;;5037328;28;20068;-57
2020/12/29 14:39:05;;;;;;;2.20;1.47;;;;;;;;;;5027641;28;20033;-58
2020/12/29 14:42:31;;;;;;;;;;;;;;;;;;;;;
2020/12/29 14:45:27;;;;;;;2.10;1.43;;;;;;;;;;5011854;28;20125;-59
2020/12/29 14:48:28;;;;;;;2.23;1.03;;;;;;;;;;4936100;29;20472;-59
2020/12/29 14:50:57;;;;;;;4.05;1.40;;;;;;;;;;5015259;28;20038;-57
2020/12/29 14:53:45;;;;;;;3.23;1.73;;;;;;;;;;5049787;28;20029;-57
2020/12/29 14:56:43;;;;;;;3.63;1.40;;;;;;;;;;5040603;28;20555;-59
2020/12/29 14:59:39;;;;;;;3.70;1.53;;;;;;;;;;5055816;28;20381;-59
2020/12/29 15:08:05;;;;;;;3.10;1.20;;;;;;;;;;5035600;28;20040;-58
2020/12/29 15:10:44;;;;;;;3.50;1.20;;;;;;;;;;5037195;28;20100;-58
2020/12/29 15:13:33;;;;;;;2.20;1.10;;;;;;;;;;5034754;28;20080;-59
2020/12/29 15:16:36;;;;;;;3.23;1.33;;;;;;;;;;5034763;28;20116;-59
2020/12/29 15:22:26;;;;;;;2.63;1.33;;;;;;;;;;5047948;28;20118;-59
2020/12/29 15:25:10;;;;;;;2.23;0.80;;;;;;;;;;5052994;28;20048;-58
2020/12/29 15:27:51;;;;;;;2.30;1.37;;;;;;;;;;5054896;28;20030;-57
2020/12/29 15:30:33;;;;;;;1.77;1.00;;;;;;;;;;5039658;28;20081;-58
2020/12/29 15:36:33;;;;;;;;;;;;;;;;;;;;;
2020/12/29 15:39:09;;;;;;;2.97;1.20;;;;;;;;;;5022638;28;20365;-59
2020/12/29 15:42:19;;;;;;;2.43;1.27;;;;;;;;;;5048363;28;20041;-59
2020/12/29 15:45:02;;;;;;;2.90;1.63;;;;;;;;;;5030886;28;20129;-59
2020/12/29 15:47:48;;;;;;;6.57;1.37;;;;;;;;;;5033531;28;20037;-59
2020/12/29 15:50:42;;;;;;;;;;;;;;;;;;;;;
2020/12/29 15:53:14;;;;;;;2.33;1.43;;;;;;;;;;5053711;28;20021;-59
2020/12/29 16:02:02;;;;;;;4.70;2.50;;;;;;;;;;4972787;28;20176;-59
2020/12/29 16:04:56;;;;;;;4.07;2.50;;;;;;;;;;5023930;28;20430;-58
2020/12/29 16:10:53;;;;;;;3.13;2.50;;;;;;;;;;5046027;28;20040;-59
2020/12/29 16:16:33;;;;;;;4.13;1.50;;;;;;;;;;5053845;28;20083;-59
2020/12/29 16:19:19;;;;;;;2.43;1.37;;;;;;;;;;5053802;28;20060;-58
2020/12/29 16:22:08;;;;;;;3.70;2.20;;;;;;;;;;5053520;28;20029;-59
2020/12/29 16:25:07;;;;;;;3.67;2.37;;;;;;;;;;4989432;28;20042;-59
2020/12/29 16:28:08;;;;;;;;;;;;;;;;;;;;;
2020/12/29 16:30:58;;;;;;;3.43;2.40;;;;;;;;;;4964624;28;20065;-58
2020/12/29 16:33:51;;;;;;;3.73;2.60;;;;;;;;;;4976647;28;20162;-57
2020/12/29 16:40:11;;;;;;;4.27;2.13;;;;;;;;;;4991787;28;20066;-57
2020/12/29 16:46:42;;;;;;;4.07;2.47;;;;;;;;;;4895810;29;20487;-60
2020/12/29 16:49:43;;;;;;;4.22;1.77;;;;;;;;;;4933545;29;20370;-60
2020/12/29 17:01:33;;;;;;;;;;;;;;;;;;;;;
2020/12/29 17:10:02;;;;;;;3.10;1.87;;;;;;;;;;5008593;28;20030;-61
2020/12/29 17:12:47;;;;;;;3.80;2.20;;;;;;;;;;5039079;28;20037;-61
2020/12/29 17:15:39;;;;;;;5.00;2.10;;;;;;;;;;5044050;28;20513;-60
2020/12/29 17:18:21;;;;;;;3.30;1.67;;;;;;;;;;5031457;28;20047;-60
2020/12/29 17:21:27;;;;;;;2.90;2.00;;;;;;;;;;5052293;28;20025;-60
2020/12/29 17:24:21;;;;;;;2.60;1.40;;;;;;;;;;5031619;28;20064;-60
2020/12/29 17:27:13;;;;;;;2.87;1.50;;;;;;;;;;5026694;28;20072;-60
2020/12/29 17:29:52;;;;;;;2.70;1.77;;;;;;;;;;5059817;28;20487;-60
2020/12/29 17:32:29;;;;;;;3.10;1.73;;;;;;;;;;5061056;28;20037;-60
2020/12/29 17:35:17;;;;;;;3.20;2.03;;;;;;;;;;5031091;28;20088;-59
2020/12/29 17:41:22;;;;;;;3.53;2.50;;;;;;;;;;4991142;28;20113;-60
2020/12/29 17:44:22;;;;;;;3.53;1.90;;;;;;;;;;5015898;28;20041;-60
2020/12/29 17:47:07;;;;;;;3.33;2.03;;;;;;;;;;5025840;28;20422;-60
2020/12/29 17:49:55;;;;;;;5.80;2.50;;;;;;;;;;5048469;28;20514;-60
2020/12/29 17:52:34;;;;;;;2.97;1.80;;;;;;;;;;5022217;28;20060;-60
2020/12/29 17:55:13;;;;;;;6.00;3.30;;;;;;;;;;5041610;28;20037;-60
2020/12/29 18:04:06;;;;;;;4.10;2.10;;;;;;;;;;5013763;28;20026;-60
2020/12/29 18:07:26;;;;;;;4.50;2.23;;;;;;;;;;5039982;28;20041;-60
2020/12/29 18:10:14;;;;;;;3.57;2.37;;;;;;;;;;4960520;28;20458;-60
2020/12/29 18:13:22;;;;;;;3.43;2.07;;;;;;;;;;4978983;28;20039;-60
2020/12/29 18:19:29;;;;;;;4.10;2.73;;;;;;;;;;5043897;28;20519;-60
2020/12/29 18:22:11;;;;;;;5.70;2.63;;;;;;;;;;5042784;28;20068;-60
2020/12/29 18:31:06;;;;;;;4.27;3.37;;;;;;;;;;4951905;28;20067;-60
2020/12/29 18:34:02;;;;;;;8.17;4.87;;;;;;;;;;4976226;28;20066;-60
2020/12/29 18:36:45;;;;;;;;;;;;;;;;;;;;;
2020/12/29 18:39:27;;;;;;;18.73;8.50;;;;;;;;;;4976525;28;20043;-60
2020/12/29 18:45:26;;;;;;;9.07;5.43;;;;;;;;;;5029801;28;20044;-60
2020/12/29 18:48:34;;;;;;;8.17;4.47;;;;;;;;;;5050132;28;20487;-60
2020/12/29 18:51:26;;;;;;;5.47;3.73;;;;;;;;;;5037457;28;20049;-60
2020/12/29 18:54:06;;;;;;;3.47;2.40;;;;;;;;;;4975911;28;20043;-60
2020/12/29 18:57:07;;;;;;;5.93;3.97;;;;;;;;;;5053547;28;20382;-60
2020/12/29 19:00:15;;;;;;;4.93;3.07;;;;;;;;;;5012632;28;20033;-60
2020/12/29 19:02:47;;;;;;;4.00;2.43;;;;;;;;;;4967235;28;20492;-60
2020/12/29 19:05:32;;;;;;;4.20;2.50;;;;;;;;;;4978286;28;20031;-60
2020/12/29 19:08:21;;;;;;;4.43;2.60;;;;;;;;;;4987703;28;20050;-59
2020/12/29 19:11:00;;;;;;;5.77;3.13;;;;;;;;;;4954925;28;20042;-60
2020/12/29 19:14:06;;;;;;;3.73;2.80;;;;;;;;;;4967532;28;20130;-60
2020/12/29 19:23:04;;;;;;;5.53;3.50;;;;;;;;;;4905443;29;20068;-60
2020/12/29 19:25:57;;;;;;;4.60;3.00;;;;;;;;;;4906443;29;20037;-60
2020/12/29 19:28:42;;;;;;;5.27;2.57;;;;;;;;;;4954257;28;20062;-60
2020/12/29 19:31:31;;;;;;;;;;;;;;;;;;;;;
2020/12/29 19:43:39;;;;;;;5.68;3.95;;;;;;;;;;5051225;28;20090;-60
2020/12/29 19:46:41;;;;;;;5.17;4.23;;;;;;;;;;5082945;28;20498;-59
2020/12/29 19:49:21;;;;;;;4.97;2.17;;;;;;;;;;5051524;28;20031;-60
2020/12/29 19:52:24;;;;;;;4.25;2.63;;;;;;;;;;5048300;28;20082;-59
2020/12/29 20:01:09;;;;;;;3.93;2.80;;;;;;;;;;5045786;28;20645;-60
2020/12/29 20:03:55;;;;;;;3.53;2.70;;;;;;;;;;5041005;28;20525;-60
2020/12/29 20:11:20;;;;;;;5.27;3.50;;;;;;;;;;4981068;28;20043;-60
2020/12/29 20:13:21;;;;;;;;;;;;;;;;;;4968229;28;20133;-60
2020/12/29 20:16:08;;;;;;;6.47;3.90;;;;;;;;;;5033574;28;19925;-59
2020/12/29 20:19:13;;;;;;;6.33;2.77;;;;;;;;;;5074879;28;20482;-60
2020/12/29 20:22:20;;;;;;;3.97;3.00;;;;;;;;;;5027627;28;20365;-59
2020/12/29 20:25:12;;;;;;;3.30;2.27;;;;;;;;;;5034224;28;20101;-60
2020/12/29 20:27:52;;;;;;;2.87;2.07;;;;;;;;;;5033732;28;20124;-60
2020/12/29 20:30:47;;;;;;;2.25;1.50;;;;;;;;;;5046279;28;20483;-60
2020/12/29 20:33:51;;;;;;;4.80;3.07;;;;;;;;;;5041180;28;20083;-60
2020/12/29 20:37:02;;;;;;;4.80;1.83;;;;;;;;;;5032725;28;20037;-59
2020/12/29 20:43:03;;;;;;;2.90;2.23;;;;;;;;;;5043192;28;20040;-59
2020/12/29 20:45:58;;;;;;;;;;;;;;;;;;;;;
2020/12/29 20:48:41;;;;;;;3.53;1.97;;;;;;;;;;5037753;28;20097;-59
2020/12/29 20:51:39;;;;;;;3.93;1.90;;;;;;;;;;5044301;28;20471;-59
2020/12/29 20:54:14;;;;;;;5.60;1.90;;;;;;;;;;4988143;28;20057;-60
2020/12/29 21:03:09;;;;;;;;;;;;;;;;;;;;;
2020/12/29 21:05:40;;;;;;;3.87;2.20;;;;;;;;;;5017407;28;20367;-60
2020/12/29 21:17:36;;;;;;;7.28;2.47;;;;;;;;;;4971559;28;20162;-60
2020/12/29 21:23:07;;;;;;;3.20;1.87;;;;;;;;;;5030214;28;20031;-59
2020/12/29 21:25:36;;;;;;;4.93;2.03;;;;;;;;;;5013120;28;20489;-60
2020/12/29 21:28:23;;;;;;;8.43;2.17;;;;;;;;;;5014344;28;20483;-59
2020/12/29 21:36:56;;;;;;;5.17;2.73;;;;;;;;;;5013042;28;20029;-60
2020/12/29 21:45:59;;;;;;;6.07;2.70;;;;;;;;;;5040852;28;20037;-60
2020/12/29 21:57:02;;;;;;;5.20;3.13;;;;;;;;;;5030287;28;20263;-60
2020/12/29 21:59:58;;;;;;;4.67;2.33;;;;;;;;;;5041345;28;20061;-60
2020/12/29 22:02:34;;;;;;;4.93;3.57;;;;;;;;;;5064250;28;20032;-60
2020/12/29 22:05:25;;;;;;;4.97;3.50;;;;;;;;;;5065590;28;20035;-60
2020/12/29 22:08:01;;;;;;;10.00;3.47;;;;;;;;;;5064680;28;20041;-60
2020/12/29 22:14:10;;;;;;;;;;;;;;;;;;;;;
2020/12/29 22:16:49;;;;;;;4.73;2.70;;;;;;;;;;5042870;28;20041;-60
2020/12/29 22:19:43;;;;;;;4.20;3.07;;;;;;;;;;5045541;28;20041;-60
2020/12/29 22:29:04;;;;;;;3.43;2.40;;;;;;;;;;4977476;28;20051;-60
2020/12/29 22:31:39;;;;;;;4.40;2.90;;;;;;;;;;4987872;28;20142;-60
2020/12/29 22:34:27;;;;;;;6.60;3.03;;;;;;;;;;4987592;28;20426;-60
2020/12/29 22:37:15;;;;;;;;;;;;;;;;;;;;;
2020/12/29 22:40:04;;;;;;;5.27;3.23;;;;;;;;;;5041784;28;20076;-60
2020/12/29 22:45:46;;;;;;;6.67;3.90;;;;;;;;;;5048123;28;20038;-59
2020/12/29 22:48:23;;;;;;;7.67;4.00;;;;;;;;;;5048766;28;20030;-60
2020/12/29 22:51:17;;;;;;;9.33;6.23;;;;;;;;;;5049105;28;20420;-60
2020/12/29 22:57:09;;;;;;;4.67;4.20;;;;;;;;;;5019699;28;20096;-60
2020/12/29 23:02:54;;;;;;;4.17;2.27;;;;;;;;;;5047492;28;20036;-60
2020/12/29 23:05:29;;;;;;;3.87;2.87;;;;;;;;;;5049093;28;20057;-60
2020/12/29 23:08:14;;;;;;;5.17;3.57;;;;;;;;;;5049152;28;20021;-60
2020/12/29 23:13:49;;;;;;;4.30;3.00;;;;;;;;;;5047804;28;20045;-60
2020/12/29 23:19:30;;;;;;;3.27;2.37;;;;;;;;;;5041284;28;20041;-60
2020/12/29 23:22:26;;;;;;;5.00;2.93;;;;;;;;;;5046413;28;20027;-60
2020/12/29 23:25:32;;;;;;;4.57;2.93;;;;;;;;;;5042748;28;20197;-60
2020/12/29 23:28:02;;;;;;;3.90;3.03;;;;;;;;;;5048416;28;20021;-60
2020/12/29 23:30:40;;;;;;;5.67;3.20;;;;;;;;;;5048529;28;20025;-59